Time,TemperatureF,DewpointF,PressureIn,WindDirection,WindDirectionDegrees,WindSpeedMPH,WindSpeedGustMPH,Humidity,HourlyPrecipIn,Conditions,Clouds,dailyrainin,SoftwareType,DateUTC
2013-01-22 00:05:00,22.0,6.0,-100.00,SW,232,3.0,5.0,50,0.00,,,0.00,,2013-01-22 05:05:00,
2013-01-22 00:12:00,22.0,6.0,-100.00,SW,232,3.0,5.0,50,0.00,,,0.00,,2013-01-22 05:12:00,
2013-01-22 00:23:00,21.0,5.0,-100.00,WSW,241,5.0,8.0,50,0.00,,,0.00,,2013-01-22 05:23:00,
2013-01-22 00:33:00,21.0,5.0,-100.00,WSW,241,5.0,8.0,50,0.00,,,0.00,,2013-01-22 05:33:00,
2013-01-22 00:43:00,20.0,5.0,-100.00,WNW,289,1.0,3.0,50,0.00,,,0.00,,2013-01-22 05:43:00,
2013-01-22 00:53:00,20.0,5.0,-100.00,WNW,289,1.0,3.0,50,0.00,,,0.00,,2013-01-22 05:53:00,
2013-01-22 01:02:00,20.0,4.0,-100.00,West,280,2.0,4.0,50,0.00,,,0.00,,2013-01-22 06:02:00,
2013-01-22 01:12:00,20.0,4.0,-100.00,West,280,2.0,4.0,50,0.00,,,0.00,,2013-01-22 06:12:00,
2013-01-22 01:22:00,19.0,3.0,-100.00,West,271,0.0,2.0,49,0.00,,,0.00,,2013-01-22 06:22:00,
2013-01-22 01:33:00,19.0,3.0,-100.00,West,271,0.0,2.0,49,0.00,,,0.00,,2013-01-22 06:33:00,
2013-01-22 01:43:00,19.0,3.0,-100.00,WSW,241,3.0,5.0,48,0.00,,,0.00,,2013-01-22 06:43:00,
2013-01-22 01:53:00,19.0,3.0,-100.00,WSW,241,3.0,5.0,48,0.00,,,0.00,,2013-01-22 06:53:00,
2013-01-22 02:02:00,19.0,2.0,-100.00,West,275,4.0,6.0,47,0.00,,,0.00,,2013-01-22 07:02:00,
2013-01-22 02:12:00,19.0,2.0,-100.00,West,275,4.0,6.0,47,0.00,,,0.00,,2013-01-22 07:12:00,
2013-01-22 02:22:00,18.0,0.0,-100.00,West,261,4.0,6.0,45,0.00,,,0.00,,2013-01-22 07:22:00,
2013-01-22 02:33:00,18.0,0.0,-100.00,West,261,4.0,6.0,45,0.00,,,0.00,,2013-01-22 07:33:00,
2013-01-22 02:42:00,18.0,2.0,-100.00,SW,226,2.0,4.0,49,0.00,,,0.00,,2013-01-22 07:42:00,
2013-01-22 02:53:00,18.0,2.0,-100.00,SW,226,2.0,4.0,49,0.00,,,0.00,,2013-01-22 07:53:00,
2013-01-22 03:02:00,18.0,2.0,-100.00,SW,226,2.0,4.0,49,0.00,,,0.00,,2013-01-22 08:02:00,
2013-01-22 03:12:00,18.0,1.0,-100.00,South,174,2.0,4.0,47,0.00,,,0.00,,2013-01-22 08:12:00,
2013-01-22 03:22:00,18.0,1.0,-100.00,South,174,2.0,4.0,47,0.00,,,0.00,,2013-01-22 08:22:00,
2013-01-22 03:30:00,17.0,2.0,-100.00,South,184,1.0,2.0,53,0.00,,,0.00,,2013-01-22 08:30:00,
2013-01-22 03:33:00,17.0,1.0,-100.00,South,184,3.0,4.0,48,0.00,,,0.00,,2013-01-22 08:33:00,
2013-01-22 03:43:00,17.0,1.0,-100.00,South,184,3.0,4.0,48,0.00,,,0.00,,2013-01-22 08:43:00,
2013-01-22 04:12:00,17.0,2.0,-100.00,South,184,1.0,2.0,53,0.00,,,0.00,,2013-01-22 09:12:00,
2013-01-22 04:23:00,17.0,2.0,-100.00,South,184,1.0,2.0,53,0.00,,,0.00,,2013-01-22 09:23:00,
2013-01-22 04:43:00,15.0,-1.0,-100.00,SW,236,6.0,7.0,49,0.00,,,0.00,,2013-01-22 09:43:00,
2013-01-22 04:53:00,15.0,-1.0,-100.00,SW,236,6.0,7.0,49,0.00,,,0.00,,2013-01-22 09:53:00,
2013-01-22 05:03:00,15.0,1.0,-100.00,SSW,205,2.0,3.0,53,0.00,,,0.00,,2013-01-22 10:03:00,
2013-01-22 05:12:00,15.0,1.0,-100.00,SSW,205,2.0,3.0,53,0.00,,,0.00,,2013-01-22 10:12:00,
2013-01-22 05:22:00,15.0,0.0,-100.00,SW,222,3.0,5.0,51,0.00,,,0.00,,2013-01-22 10:22:00,
2013-01-22 05:33:00,15.0,0.0,-100.00,SW,222,3.0,5.0,51,0.00,,,0.00,,2013-01-22 10:33:00,
2013-01-22 05:42:00,14.0,0.0,-100.00,WSW,257,3.0,5.0,52,0.00,,,0.00,,2013-01-22 10:42:00,
2013-01-22 05:53:00,14.0,0.0,-100.00,WSW,257,3.0,5.0,52,0.00,,,0.00,,2013-01-22 10:53:00,
2013-01-22 06:02:00,14.0,0.0,-100.00,WSW,257,3.0,5.0,52,0.00,,,0.00,,2013-01-22 11:02:00,
2013-01-22 06:10:00,14.0,-1.0,-100.00,WSW,244,1.0,3.0,51,0.00,,,0.00,,2013-01-22 11:10:00,
2013-01-22 06:12:00,14.0,-3.0,-100.00,SSW,192,3.0,5.0,46,0.00,,,0.00,,2013-01-22 11:12:00,
2013-01-22 06:23:00,14.0,-2.0,-100.00,WNW,296,2.0,3.0,49,0.00,,,0.00,,2013-01-22 11:23:00,
2013-01-22 06:33:00,14.0,-2.0,-100.00,WNW,296,2.0,3.0,49,0.00,,,0.00,,2013-01-22 11:33:00,
2013-01-22 06:43:00,14.0,-2.0,-100.00,WNW,296,2.0,3.0,49,0.00,,,0.00,,2013-01-22 11:43:00,
2013-01-22 07:04:00,14.0,-1.0,-100.00,WSW,244,1.0,3.0,51,0.00,,,0.00,,2013-01-22 12:04:00,
2013-01-22 07:23:00,13.0,-1.0,-100.00,SSE,165,1.0,2.0,53,0.00,,,0.00,,2013-01-22 12:23:00,
2013-01-22 07:33:00,13.0,-1.0,-100.00,SSE,165,1.0,2.0,53,0.00,,,0.00,,2013-01-22 12:33:00,
2013-01-22 07:43:00,13.0,-1.0,-100.00,North,0,3.0,4.0,52,0.00,,,0.00,,2013-01-22 12:43:00,
2013-01-22 07:53:00,13.0,-1.0,-100.00,North,0,3.0,4.0,52,0.00,,,0.00,,2013-01-22 12:53:00,
2013-01-22 08:04:00,13.0,0.0,-100.00,North,350,2.0,3.0,55,0.00,,,0.00,,2013-01-22 13:04:00,
2013-01-22 08:14:00,13.0,0.0,-100.00,North,350,2.0,3.0,55,0.00,,,0.00,,2013-01-22 13:14:00,
2013-01-22 08:23:00,13.0,1.0,-100.00,SSW,203,1.0,5.0,58,0.00,,,0.00,,2013-01-22 13:23:00,
2013-01-22 08:33:00,13.0,1.0,-100.00,SSW,203,1.0,5.0,58,0.00,,,0.00,,2013-01-22 13:33:00,
2013-01-22 08:43:00,13.0,1.0,-100.00,SSW,203,1.0,5.0,58,0.00,,,0.00,,2013-01-22 13:43:00,
2013-01-22 09:03:00,13.0,0.0,-100.00,SE,144,2.0,3.0,58,0.00,,,0.00,,2013-01-22 14:03:00,
2013-01-22 09:13:00,13.0,0.0,-100.00,SE,144,2.0,3.0,58,0.00,,,0.00,,2013-01-22 14:13:00,
2013-01-22 09:23:00,16.0,4.0,-100.00,ESE,117,2.0,3.0,59,0.00,,,0.00,,2013-01-22 14:23:00,
2013-01-22 09:34:00,16.0,0.0,-100.00,SW,219,2.0,3.0,50,0.00,,,0.00,,2013-01-22 14:34:00,
2013-01-22 09:44:00,16.0,0.0,-100.00,SW,219,2.0,3.0,50,0.00,,,0.00,,2013-01-22 14:44:00,
2013-01-22 09:54:00,16.0,0.0,-100.00,SW,219,2.0,3.0,50,0.00,,,0.00,,2013-01-22 14:54:00,
2013-01-22 10:04:00,16.0,0.0,-100.00,SW,219,2.0,3.0,50,0.00,,,0.00,,2013-01-22 15:04:00,
2013-01-22 10:44:00,20.0,-5.0,-100.00,South,191,2.0,4.0,33,0.00,,,0.00,,2013-01-22 15:44:00,
2013-01-22 10:54:00,20.0,-5.0,-100.00,South,191,2.0,4.0,33,0.00,,,0.00,,2013-01-22 15:54:00,
2013-01-22 11:04:00,16.0,-7.0,-100.00,West,267,8.0,13.0,34,0.00,,,0.00,,2013-01-22 16:04:00,
2013-01-22 11:13:00,16.0,-7.0,-100.00,West,267,8.0,13.0,34,0.00,,,0.00,,2013-01-22 16:13:00,
2013-01-22 11:24:00,19.0,-4.0,-100.00,South,182,4.0,6.0,35,0.00,,,0.00,,2013-01-22 16:24:00,
2013-01-22 11:33:00,19.0,-4.0,-100.00,South,182,4.0,6.0,35,0.00,,,0.00,,2013-01-22 16:33:00,
2013-01-22 11:43:00,18.0,-5.0,-100.00,SSE,152,3.0,4.0,35,0.00,,,0.00,,2013-01-22 16:43:00,
2013-01-22 11:54:00,18.0,-5.0,-100.00,SSE,152,3.0,4.0,35,0.00,,,0.00,,2013-01-22 16:54:00,
2013-01-22 12:04:00,18.0,-7.0,-100.00,SE,134,6.0,8.0,32,0.00,,,0.00,,2013-01-22 17:04:00,
2013-01-22 12:13:00,18.0,-7.0,-100.00,SE,134,6.0,8.0,32,0.00,,,0.00,,2013-01-22 17:13:00,
2013-01-22 12:23:00,20.0,-3.0,-100.00,South,178,4.0,7.0,34,0.00,,,0.00,,2013-01-22 17:23:00,
2013-01-22 12:34:00,20.0,-3.0,-100.00,South,178,4.0,7.0,34,0.00,,,0.00,,2013-01-22 17:34:00,
2013-01-22 12:44:00,20.0,-3.0,-100.00,South,178,4.0,7.0,34,0.00,,,0.00,,2013-01-22 17:44:00,
2013-01-22 12:54:00,21.0,-6.0,-100.00,SSE,161,5.0,7.0,30,0.00,,,0.00,,2013-01-22 17:54:00,
2013-01-22 13:04:00,23.0,-4.0,-100.00,SE,144,3.0,5.0,29,0.00,,,0.00,,2013-01-22 18:04:00,
2013-01-22 13:13:00,23.0,-4.0,-100.00,SE,144,3.0,5.0,29,0.00,,,0.00,,2013-01-22 18:13:00,
2013-01-22 13:24:00,22.0,-5.0,-100.00,South,169,4.0,7.0,30,0.00,,,0.00,,2013-01-22 18:24:00,
2013-01-22 13:34:00,22.0,-5.0,-100.00,South,169,4.0,7.0,30,0.00,,,0.00,,2013-01-22 18:34:00,
2013-01-22 13:43:00,23.0,-8.0,-100.00,South,181,5.0,6.0,25,0.00,,,0.00,,2013-01-22 18:43:00,
2013-01-22 13:54:00,23.0,-8.0,-100.00,South,181,5.0,6.0,25,0.00,,,0.00,,2013-01-22 18:54:00,
2013-01-22 14:04:00,23.0,-8.0,-100.00,South,181,5.0,6.0,25,0.00,,,0.00,,2013-01-22 19:04:00,
2013-01-22 14:14:00,24.0,-4.0,-100.00,South,175,4.0,7.0,29,0.00,,,0.00,,2013-01-22 19:14:00,
2013-01-22 14:24:00,23.0,-5.0,-100.00,SSW,192,4.0,9.0,28,0.00,,,0.00,,2013-01-22 19:24:00,
2013-01-22 14:34:00,23.0,-5.0,-100.00,SSW,192,4.0,9.0,28,0.00,,,0.00,,2013-01-22 19:34:00,
2013-01-22 14:43:00,22.0,-8.0,-100.00,WSW,256,3.0,6.0,26,0.00,,,0.00,,2013-01-22 19:43:00,
2013-01-22 14:54:00,22.0,-8.0,-100.00,WSW,256,3.0,6.0,26,0.00,,,0.00,,2013-01-22 19:54:00,
2013-01-22 15:03:00,24.0,-6.0,-100.00,South,182,4.0,6.0,25,0.00,,,0.00,,2013-01-22 20:03:00,
2013-01-22 15:13:00,24.0,-6.0,-100.00,South,182,4.0,6.0,25,0.00,,,0.00,,2013-01-22 20:13:00,
2013-01-22 15:23:00,23.0,-8.0,-100.00,WSW,256,6.0,10.0,25,0.00,,,0.00,,2013-01-22 20:23:00,
2013-01-22 15:33:00,23.0,-8.0,-100.00,WSW,256,6.0,10.0,25,0.00,,,0.00,,2013-01-22 20:33:00,
2013-01-22 15:43:00,23.0,-8.0,-100.00,WSW,256,6.0,10.0,25,0.00,,,0.00,,2013-01-22 20:43:00,
2013-01-22 15:54:00,23.0,-9.0,-100.00,SW,233,9.0,12.0,23,0.00,,,0.00,,2013-01-22 20:54:00,
2013-01-22 16:04:00,25.0,-8.0,-100.00,South,188,5.0,7.0,23,0.00,,,0.00,,2013-01-22 21:04:00,
2013-01-22 16:13:00,25.0,-8.0,-100.00,South,188,5.0,7.0,23,0.00,,,0.00,,2013-01-22 21:13:00,
2013-01-22 16:23:00,24.0,-5.0,-100.00,SSW,196,6.0,9.0,28,0.00,,,0.00,,2013-01-22 21:23:00,
2013-01-22 16:34:00,24.0,-5.0,-100.00,SSW,196,6.0,9.0,28,0.00,,,0.00,,2013-01-22 21:34:00,
2013-01-22 16:43:00,25.0,-5.0,-100.00,SSW,199,4.0,6.0,26,0.00,,,0.00,,2013-01-22 21:43:00,
2013-01-22 16:53:00,25.0,-5.0,-100.00,SSW,199,4.0,6.0,26,0.00,,,0.00,,2013-01-22 21:53:00,
2013-01-22 17:03:00,25.0,-4.0,-100.00,SW,233,7.0,11.0,27,0.00,,,0.00,,2013-01-22 22:03:00,
2013-01-22 17:13:00,25.0,-4.0,-100.00,SW,233,7.0,11.0,27,0.00,,,0.00,,2013-01-22 22:13:00,
2013-01-22 17:23:00,24.0,-5.0,-100.00,SSW,202,5.0,8.0,27,0.00,,,0.00,,2013-01-22 22:23:00,
2013-01-22 17:33:00,24.0,-5.0,-100.00,SSW,202,5.0,8.0,27,0.00,,,0.00,,2013-01-22 22:33:00,
2013-01-22 17:43:00,22.0,-6.0,-100.00,WSW,239,2.0,4.0,28,0.00,,,0.00,,2013-01-22 22:43:00,
2013-01-22 17:53:00,22.0,-6.0,-100.00,WSW,239,2.0,4.0,28,0.00,,,0.00,,2013-01-22 22:53:00,
2013-01-22 18:03:00,22.0,-4.0,-100.00,SSW,208,2.0,4.0,31,0.00,,,0.00,,2013-01-22 23:03:00,
2013-01-22 18:12:00,22.0,-4.0,-100.00,SSW,208,2.0,4.0,31,0.00,,,0.00,,2013-01-22 23:12:00,
2013-01-22 18:24:00,21.0,-6.0,-100.00,WSW,247,4.0,7.0,30,0.00,,,0.00,,2013-01-22 23:24:00,
2013-01-22 18:33:00,21.0,-6.0,-100.00,WSW,247,4.0,7.0,30,0.00,,,0.00,,2013-01-22 23:33:00,
2013-01-22 18:43:00,21.0,-6.0,-100.00,WSW,247,4.0,7.0,30,0.00,,,0.00,,2013-01-22 23:43:00,
2013-01-22 19:03:00,21.0,-5.0,-100.00,SW,223,2.0,5.0,32,0.00,,,0.00,,2013-01-23 00:03:00,
2013-01-22 19:23:00,21.0,-3.0,-100.00,WSW,248,4.0,7.0,34,0.00,,,0.00,,2013-01-23 00:23:00,
2013-01-22 19:33:00,21.0,-3.0,-100.00,WSW,248,4.0,7.0,34,0.00,,,0.00,,2013-01-23 00:33:00,
2013-01-22 19:43:00,21.0,-3.0,-100.00,South,175,2.0,3.0,34,0.00,,,0.00,,2013-01-23 00:43:00,
2013-01-22 19:53:00,21.0,-3.0,-100.00,South,175,2.0,3.0,34,0.00,,,0.00,,2013-01-23 00:53:00,
2013-01-22 20:03:00,21.0,-3.0,-100.00,South,175,2.0,3.0,34,0.00,,,0.00,,2013-01-23 01:03:00,
2013-01-22 20:23:00,20.0,-4.0,-100.00,WSW,258,4.0,9.0,34,0.00,,,0.00,,2013-01-23 01:23:00,
2013-01-22 20:33:00,20.0,-4.0,-100.00,WSW,258,4.0,9.0,34,0.00,,,0.00,,2013-01-23 01:33:00,
2013-01-22 20:43:00,20.0,-3.0,-100.00,West,265,6.0,8.0,35,0.00,,,0.00,,2013-01-23 01:43:00,
2013-01-22 20:53:00,20.0,-3.0,-100.00,West,265,6.0,8.0,35,0.00,,,0.00,,2013-01-23 01:53:00,
2013-01-22 21:03:00,20.0,-3.0,-100.00,West,263,5.0,7.0,34,0.00,,,0.00,,2013-01-23 02:03:00,
2013-01-22 21:13:00,20.0,-3.0,-100.00,West,263,5.0,7.0,34,0.00,,,0.00,,2013-01-23 02:13:00,
2013-01-22 21:23:00,19.0,-1.0,-100.00,SW,227,2.0,5.0,41,0.00,,,0.00,,2013-01-23 02:23:00,
2013-01-22 21:33:00,19.0,-1.0,-100.00,SW,227,2.0,5.0,41,0.00,,,0.00,,2013-01-23 02:33:00,
2013-01-22 21:43:00,19.0,-2.0,-100.00,West,265,6.0,8.0,39,0.00,,,0.00,,2013-01-23 02:43:00,
2013-01-22 21:54:00,19.0,-2.0,-100.00,West,265,6.0,8.0,39,0.00,,,0.00,,2013-01-23 02:54:00,
2013-01-22 22:03:00,19.0,-2.0,-100.00,WNW,289,6.0,8.0,40,0.00,,,0.00,,2013-01-23 03:03:00,
2013-01-22 22:13:00,19.0,-2.0,-100.00,WNW,289,6.0,8.0,40,0.00,,,0.00,,2013-01-23 03:13:00,
2013-01-22 22:23:00,18.0,-1.0,-100.00,WNW,295,4.0,6.0,42,0.00,,,0.00,,2013-01-23 03:23:00,
2013-01-22 22:33:00,18.0,-1.0,-100.00,WNW,295,4.0,6.0,42,0.00,,,0.00,,2013-01-23 03:33:00,
2013-01-22 22:43:00,18.0,-3.0,-100.00,West,277,7.0,11.0,38,0.00,,,0.00,,2013-01-23 03:43:00,
2013-01-22 22:53:00,18.0,-3.0,-100.00,West,277,7.0,11.0,38,0.00,,,0.00,,2013-01-23 03:53:00,
2013-01-22 23:03:00,18.0,-2.0,-100.00,West,281,6.0,9.0,40,0.00,,,0.00,,2013-01-23 04:03:00,
2013-01-22 23:13:00,18.0,-2.0,-100.00,West,281,6.0,9.0,40,0.00,,,0.00,,2013-01-23 04:13:00,
2013-01-22 23:23:00,18.0,0.0,-100.00,SSW,205,0.0,1.0,45,0.00,,,0.00,,2013-01-23 04:23:00,
2013-01-22 23:33:00,18.0,0.0,-100.00,SSW,205,0.0,1.0,45,0.00,,,0.00,,2013-01-23 04:33:00,
2013-01-22 23:43:00,17.0,-3.0,-100.00,SSW,210,2.0,3.0,40,0.00,,,0.00,,2013-01-23 04:43:00,
2013-01-22 23:53:00,17.0,-3.0,-100.00,SSW,210,2.0,3.0,40,0.00,,,0.00,,2013-01-23 04:53:00,